Time;durP1;ratioP1;P1;durP2;ratioP2;P2;SDS_P1;SDS_P2;PMS_P1;PMS_P2;Temp;Humidity;BMP_temperature;BMP_pressure;BME280_temperature;BME280_humidity;BME280_pressure;Samples;Min_cycle;Max_cycle;Signal;HPM_P1;HPM_P2
2023/01/30 00:00:29;;;;;;;0.50;0.50;;;;;;;4.44;98.83;98232.47;5106284;28;20032;-74
2023/01/30 00:02:54;;;;;;;0.50;0.50;;;;;;;4.38;98.60;98235.16;5107045;28;20084;-74
2023/01/30 00:05:20;;;;;;;0.50;0.50;;;;;;;4.36;98.74;98232.59;5112545;28;20024;-74
2023/01/30 00:07:46;;;;;;;0.50;0.50;;;;;;;4.21;98.52;98201.19;5089672;28;20016;-73
2023/01/30 00:10:11;;;;;;;0.50;0.50;;;;;;;4.30;98.64;98230.13;5105914;28;20020;-74
2023/01/30 00:12:37;;;;;;;0.50;0.50;;;;;;;4.28;98.46;98217.31;5105933;28;20039;-74
2023/01/30 00:15:03;;;;;;;0.40;0.40;;;;;;;4.28;98.60;98211.34;5106032;28;20040;-75
2023/01/30 00:17:28;;;;;;;0.50;0.50;;;;;;;4.24;98.33;98207.97;5106001;28;20031;-76
2023/01/30 00:19:53;;;;;;;0.50;0.50;;;;;;;4.20;98.64;98208.91;5087799;28;20217;-79
2023/01/30 00:22:19;;;;;;;0.50;0.50;;;;;;;4.18;98.55;98216.66;5106154;28;20030;-80
2023/01/30 00:24:44;;;;;;;0.50;0.50;;;;;;;4.13;98.73;98208.19;5088098;28;20092;-82
2023/01/30 00:27:10;;;;;;;0.50;0.50;;;;;;;4.11;98.75;98199.66;5106237;28;20051;-83
2023/01/30 00:29:35;;;;;;;0.50;0.50;;;;;;;4.09;98.79;98198.81;5106096;28;20034;-81
2023/01/30 00:32:01;;;;;;;0.93;0.93;;;;;;;4.09;98.77;98209.94;5105495;28;20031;-81
2023/01/30 00:34:26;;;;;;;0.50;0.50;;;;;;;4.09;98.83;98209.09;5106039;28;20028;-78
2023/01/30 00:36:51;;;;;;;0.50;0.50;;;;;;;3.86;98.67;98179.53;5106134;28;20020;-78
2023/01/30 00:39:17;;;;;;;0.50;0.50;;;;;;;4.06;98.92;98217.69;5105810;28;20059;-77
2023/01/30 00:47:10;;;;;;;0.50;0.50;;;;;;;4.02;99.09;98192.09;5105956;28;20084;-76
2023/01/30 00:49:37;;;;;;;2.47;2.35;;;;;;;4.04;99.47;98200.63;5105772;28;20032;-74
2023/01/30 00:52:03;;;;;;;0.50;0.50;;;;;;;3.99;99.46;98190.44;5105687;28;20020;-77
2023/01/30 00:54:29;;;;;;;0.50;0.50;;;;;;;4.00;99.62;98178.44;5105510;28;20153;-76
2023/01/30 00:56:54;;;;;;;0.50;0.50;;;;;;;3.90;99.62;98175.22;5105358;28;20020;-76
2023/01/30 00:59:20;;;;;;;0.50;0.50;;;;;;;4.00;99.56;98183.56;5105362;28;20034;-75
2023/01/30 01:01:45;;;;;;;0.50;0.50;;;;;;;3.91;99.53;98171.75;5105300;28;20020;-75
2023/01/30 01:04:10;;;;;;;0.50;0.50;;;;;;;3.96;99.82;98181.06;5105398;28;20049;-75
2023/01/30 01:06:37;;;;;;;0.40;0.40;;;;;;;3.97;99.78;98182.78;5105513;28;20131;-75
2023/01/30 01:09:03;;;;;;;0.50;0.50;;;;;;;3.93;99.94;98185.44;5105398;28;20034;-75
2023/01/30 01:11:28;;;;;;;0.50;0.50;;;;;;;3.89;99.79;98176.06;5105206;28;20043;-76
2023/01/30 01:13:56;;;;;;;0.43;0.43;;;;;;;3.96;99.89;98182.81;5105372;28;20028;-76
2023/01/30 01:16:23;;;;;;;0.50;0.50;;;;;;;3.93;99.90;98180.28;5105245;28;20020;-75
2023/01/30 01:18:49;;;;;;;0.50;0.50;;;;;;;3.96;99.96;98180.22;5105502;28;20085;-76
2023/01/30 01:21:15;;;;;;;0.40;0.40;;;;;;;3.95;99.91;98184.50;5105606;28;20024;-76
2023/01/30 01:23:40;;;;;;;0.50;0.50;;;;;;;3.95;99.88;98184.50;5105649;28;20375;-78
2023/01/30 01:26:06;;;;;;;0.45;0.45;;;;;;;3.90;99.79;98182.91;5105130;28;20078;-78
2023/01/30 01:28:31;;;;;;;0.50;0.50;;;;;;;3.92;99.67;98184.56;5105235;28;20039;-75
2023/01/30 01:30:57;;;;;;;0.50;0.50;;;;;;;3.91;99.69;98172.63;5105263;28;20690;-75
2023/01/30 01:33:27;;;;;;;0.50;0.50;;;;;;;3.90;99.56;98170.06;5105110;28;20028;-75
2023/01/30 01:35:56;;;;;;;0.47;0.47;;;;;;;3.92;99.74;98171.72;5086870;28;20047;-74
2023/01/30 01:38:21;;;;;;;0.50;0.50;;;;;;;3.85;99.62;98157.28;5104997;28;20028;-77
2023/01/30 01:41:03;;;;;;;0.40;0.40;;;;;;;3.85;99.54;98170.13;5086600;28;20088;-76
2023/01/30 01:43:35;;;;;;;0.60;0.60;;;;;;;3.89;99.63;98173.50;5107193;28;20115;-77
2023/01/30 01:46:03;;;;;;;0.50;0.50;;;;;;;3.87;99.58;98170.09;5109219;28;20024;-74
2023/01/30 01:48:37;;;;;;;0.50;0.50;;;;;;;3.82;99.46;98165.03;5108849;28;20048;-75
2023/01/30 01:51:10;;;;;;;0.50;0.50;;;;;;;3.84;99.48;98165.88;5108771;28;20023;-75
2023/01/30 01:53:42;;;;;;;0.50;0.50;;;;;;;3.85;99.49;98175.25;5109029;28;20108;-76
2023/01/30 01:56:09;;;;;;;0.50;0.50;;;;;;;3.81;99.54;98163.34;5090314;28;20085;-74
2023/01/30 01:58:47;;;;;;;0.50;0.50;;;;;;;3.83;99.53;98157.31;5108922;28;20468;-76
2023/01/30 02:01:12;;;;;;;0.50;0.50;;;;;;;3.82;99.39;98162.47;5108616;28;20038;-75
2023/01/30 02:03:43;;;;;;;0.50;0.50;;;;;;;3.85;99.54;98162.44;5108864;28;20087;-75
2023/01/30 02:06:10;;;;;;;0.50;0.50;;;;;;;3.82;99.45;98154.78;5108753;28;20043;-75
2023/01/30 02:08:38;;;;;;;0.50;0.50;;;;;;;3.84;99.45;98159.03;5108785;28;20051;-75
2023/01/30 02:11:13;;;;;;;0.50;0.50;;;;;;;3.83;99.39;98148.78;5108387;28;20020;-75
2023/01/30 02:13:39;;;;;;;0.40;0.40;;;;;;;3.77;99.42;98131.75;5108604;28;20115;-75
2023/01/30 02:16:07;;;;;;;0.50;0.50;;;;;;;3.81;99.30;98142.81;5108477;28;20450;-74
2023/01/30 02:18:34;;;;;;;0.43;0.43;;;;;;;3.83;99.54;98133.38;5108431;28;20024;-75
2023/01/30 02:21:03;;;;;;;0.50;0.50;;;;;;;3.83;99.38;98129.09;5108292;28;20380;-75
2023/01/30 02:23:37;;;;;;;0.50;0.50;;;;;;;3.82;99.42;98116.28;5090153;28;20043;-73
2023/01/30 02:26:27;;;;;;;0.50;0.50;;;;;;;3.78;99.18;98125.78;5108198;28;20039;-74
2023/01/30 02:29:01;;;;;;;0.50;0.50;;;;;;;3.79;98.80;98113.75;5108571;28;20452;-74
2023/01/30 02:31:34;;;;;;;0.50;0.50;;;;;;;3.79;98.65;98131.72;5108236;28;20024;-76
2023/01/30 02:34:18;;;;;;;0.50;0.50;;;;;;;3.82;98.09;98116.28;5108335;28;20024;-74
2023/01/30 02:37:21;;;;;;;0.52;0.52;;;;;;;3.81;97.54;98125.72;5089997;28;20023;-74
2023/01/30 02:40:09;;;;;;;8.85;1.08;;;;;;;3.80;97.01;98112.91;5108152;28;20035;-74
2023/01/30 02:42:53;;;;;;;1.40;1.40;;;;;;;3.80;96.19;98126.56;5107842;28;20024;-75
2023/01/30 02:45:31;;;;;;;0.40;0.40;;;;;;;3.78;96.35;98106.94;5107828;28;20107;-74
2023/01/30 02:48:12;;;;;;;0.50;0.50;;;;;;;3.78;95.59;98117.22;5107934;28;20038;-74
2023/01/30 02:50:55;;;;;;;0.55;0.55;;;;;;;3.76;94.06;98108.69;5107723;28;20020;-75
2023/01/30 02:53:21;;;;;;;0.50;0.50;;;;;;;3.82;93.88;98108.56;5107674;28;20103;-75
2023/01/30 02:55:46;;;;;;;0.50;0.50;;;;;;;3.83;93.36;98115.41;5106777;28;20024;-75
2023/01/30 02:58:14;;;;;;;0.50;0.50;;;;;;;3.82;93.66;98121.41;5107455;28;20064;-74
2023/01/30 03:01:02;;;;;;;0.50;0.50;;;;;;;3.84;93.06;98109.41;5107358;28;20465;-74
2023/01/30 03:04:02;;;;;;;0.50;0.50;;;;;;;3.86;92.05;98112.81;5095354;28;20063;-73
2023/01/30 03:06:49;;;;;;;8.80;4.35;;;;;;;3.93;92.21;98118.66;5110476;28;20039;-75
2023/01/30 03:09:29;;;;;;;1.10;1.10;;;;;;;3.91;92.55;98103.31;5108082;28;20103;-75
2023/01/30 03:12:06;;;;;;;0.50;0.50;;;;;;;3.91;92.84;98105.88;5105912;28;20024;-75
2023/01/30 03:14:41;;;;;;;0.50;0.50;;;;;;;3.87;92.23;98101.66;5089202;28;20047;-76
2023/01/30 03:17:08;;;;;;;0.50;0.50;;;;;;;3.88;92.50;98116.19;5107407;28;20024;-74
2023/01/30 03:19:33;;;;;;;0.50;0.50;;;;;;;3.85;92.67;98126.50;5107076;28;20023;-72
2023/01/30 03:21:59;;;;;;;3.25;2.95;;;;;;;3.79;92.32;98109.50;5107265;28;20016;-74
2023/01/30 03:24:25;;;;;;;0.50;0.50;;;;;;;3.82;91.68;98121.41;5088867;28;20050;-75
2023/01/30 03:27:06;;;;;;;1.55;1.50;;;;;;;3.82;91.64;98100.88;5105214;28;20031;-75
2023/01/30 03:29:32;;;;;;;0.50;0.50;;;;;;;3.89;91.20;98099.91;5105832;28;20024;-74
2023/01/30 03:31:58;;;;;;;11.70;3.10;;;;;;;3.97;90.56;98098.03;5106712;28;20105;-75
2023/01/30 03:34:23;;;;;;;0.93;0.93;;;;;;;4.04;90.59;98092.78;5107202;28;20024;-75
2023/01/30 03:36:49;;;;;;;0.50;0.50;;;;;;;4.04;90.09;98095.38;5088730;28;20110;-76
2023/01/30 03:39:14;;;;;;;0.50;0.50;;;;;;;4.07;89.34;98090.16;5088818;28;20531;-75
2023/01/30 03:41:40;;;;;;;0.50;0.50;;;;;;;4.09;89.48;98075.56;5106421;28;20020;-75
2023/01/30 03:44:06;;;;;;;0.50;0.50;;;;;;;4.07;89.32;98090.16;5106517;28;20494;-75
2023/01/30 03:46:31;;;;;;;0.50;0.50;;;;;;;4.09;88.90;98088.38;5088320;28;20032;-75
2023/01/30 03:48:56;;;;;;;0.50;0.50;;;;;;;4.12;89.25;98096.03;5106662;28;20024;-75
2023/01/30 03:51:22;;;;;;;0.60;0.60;;;;;;;4.11;89.12;98086.66;5088403;28;20016;-75
2023/01/30 03:53:47;;;;;;;0.50;0.50;;;;;;;4.06;88.67;98086.75;5088578;28;20055;-75
2023/01/30 03:56:13;;;;;;;1.85;1.75;;;;;;;3.88;87.50;98046.03;5106447;28;20028;-75
2023/01/30 03:58:38;;;;;;;0.50;0.50;;;;;;;4.06;87.35;98060.22;5106678;28;20039;-75
2023/01/30 04:01:04;;;;;;;0.50;0.50;;;;;;;4.18;87.55;98060.00;5106343;28;20050;-74
2023/01/30 04:03:30;;;;;;;0.60;0.60;;;;;;;4.20;87.27;98060.78;5106481;28;20103;-75
2023/01/30 04:05:55;;;;;;;0.55;0.55;;;;;;;4.18;86.00;98039.44;5088036;28;20041;-75
2023/01/30 04:08:20;;;;;;;0.47;0.47;;;;;;;4.31;86.39;98052.03;5106313;28;20044;-75
2023/01/30 04:10:46;;;;;;;0.50;0.50;;;;;;;4.32;86.23;98048.56;5106085;28;20016;-75
2023/01/30 04:13:11;;;;;;;0.50;0.50;;;;;;;4.26;84.98;98008.47;5106265;28;20024;-76
2023/01/30 04:15:36;;;;;;;0.50;0.50;;;;;;;4.22;84.61;98035.91;5106260;28;20024;-71
2023/01/30 04:18:02;;;;;;;0.50;0.50;;;;;;;4.12;82.66;98011.28;5106186;28;20020;-75
2023/01/30 04:20:27;;;;;;;0.50;0.50;;;;;;;4.12;82.16;98010.47;5106143;28;20024;-75
2023/01/30 04:22:54;;;;;;;0.50;0.50;;;;;;;4.00;81.59;98003.84;5106174;28;20027;-76
2023/01/30 04:25:20;;;;;;;0.50;0.50;;;;;;;3.88;81.69;97997.25;5106218;28;20016;-74
2023/01/30 04:27:45;;;;;;;0.50;0.50;;;;;;;3.90;80.56;98001.47;5105832;28;20059;-75
2023/01/30 04:30:11;;;;;;;0.50;0.50;;;;;;;3.86;80.82;98012.69;5106332;28;20022;-74
2023/01/30 04:32:36;;;;;;;0.60;0.60;;;;;;;3.83;80.59;98008.44;5106828;28;20016;-75
2023/01/30 04:35:02;;;;;;;0.50;0.50;;;;;;;3.77;80.96;97980.34;5106319;28;20039;-75
2023/01/30 04:37:27;;;;;;;0.50;0.50;;;;;;;3.78;80.56;97996.59;5088134;28;20059;-75
2023/01/30 04:39:52;;;;;;;0.50;0.50;;;;;;;3.75;80.01;98001.78;5106108;28;20024;-75
2023/01/30 04:42:18;;;;;;;0.50;0.50;;;;;;;3.66;80.08;98018.22;5088656;28;20091;-75
2023/01/30 04:44:43;;;;;;;3.40;3.00;;;;;;;3.70;80.47;98027.53;5107462;28;20040;-74
2023/01/30 04:47:09;;;;;;;0.50;0.50;;;;;;;3.70;79.63;98000.16;5107574;28;20073;-75
2023/01/30 04:49:34;;;;;;;0.50;0.50;;;;;;;3.70;79.83;98012.13;5106941;28;20020;-72
2023/01/30 04:51:59;;;;;;;0.50;0.50;;;;;;;3.86;79.12;98019.53;5107258;28;20482;-76
2023/01/30 04:54:25;;;;;;;0.50;0.50;;;;;;;3.88;79.85;97997.25;5105883;28;20403;-74
2023/01/30 04:56:50;;;;;;;0.50;0.50;;;;;;;3.94;79.62;98005.69;5105263;28;20020;-74
2023/01/30 04:59:16;;;;;;;0.88;0.88;;;;;;;4.01;78.74;97997.84;5105677;28;20024;-74
2023/01/30 05:01:41;;;;;;;0.50;0.50;;;;;;;3.96;78.48;98000.53;5104219;28;20016;-74
2023/01/30 05:04:07;;;;;;;0.50;0.50;;;;;;;3.99;79.03;97994.47;5105526;28;20027;-72
2023/01/30 05:06:34;;;;;;;0.50;0.50;;;;;;;4.00;78.95;97986.72;5105384;28;20020;-73
2023/01/30 05:09:00;;;;;;;0.60;0.60;;;;;;;4.00;79.27;97988.44;5105344;28;20024;-72
2023/01/30 05:11:27;;;;;;;0.50;0.50;;;;;;;3.95;78.94;97979.13;5086807;28;20027;-74
2023/01/30 05:13:53;;;;;;;0.50;0.50;;;;;;;3.94;79.22;97987.72;5105305;28;20050;-73
2023/01/30 05:16:20;;;;;;;0.50;0.50;;;;;;;3.99;79.58;97989.34;5105422;28;20084;-73
2023/01/30 05:18:45;;;;;;;0.60;0.60;;;;;;;3.96;79.95;97985.94;5103365;28;20050;-71
2023/01/30 05:21:14;;;;;;;0.60;0.60;;;;;;;4.04;80.17;97984.94;5105189;28;20021;-72
2023/01/30 05:23:40;;;;;;;0.60;0.60;;;;;;;3.91;80.35;97940.72;5105364;28;20028;-71
2023/01/30 05:26:06;;;;;;;1.90;1.75;;;;;;;4.12;79.99;97953.97;5086962;28;20020;-69
2023/01/30 05:28:31;;;;;;;0.60;0.60;;;;;;;4.13;80.03;97977.06;5105257;28;20024;-70
2023/01/30 05:31:05;;;;;;;0.60;0.60;;;;;;;4.13;79.71;97971.91;5087636;28;20552;-74
2023/01/30 05:33:30;;;;;;;1.10;1.05;;;;;;;4.14;79.61;97950.47;5087726;28;20097;-73
2023/01/30 05:35:56;;;;;;;0.50;0.50;;;;;;;4.17;79.25;97947.84;5105855;28;20024;-73
2023/01/30 05:38:23;;;;;;;0.50;0.50;;;;;;;4.21;78.81;97953.78;5105454;28;20085;-71
2023/01/30 05:41:00;;;;;;;0.50;0.50;;;;;;;4.17;78.95;97963.25;5105342;28;20081;-71
2023/01/30 05:43:26;;;;;;;0.50;0.50;;;;;;;4.23;79.15;97972.56;5086899;28;20030;-72
2023/01/30 05:45:53;;;;;;;0.50;0.50;;;;;;;4.22;78.94;97971.72;5105418;28;20382;-72
2023/01/30 05:48:19;;;;;;;0.50;0.50;;;;;;;4.19;78.36;97976.06;5105540;28;20024;-72
2023/01/30 05:50:45;;;;;;;0.50;0.50;;;;;;;4.13;77.83;97955.66;5104919;28;20023;-71
2023/01/30 05:53:10;;;;;;;0.60;0.60;;;;;;;4.14;77.52;97958.19;5086889;28;20039;-70
2023/01/30 05:55:36;;;;;;;0.50;0.50;;;;;;;4.16;77.39;97947.88;5086660;28;20106;-73
2023/01/30 05:58:01;;;;;;;0.50;0.50;;;;;;;4.18;77.28;97966.69;5104823;28;20028;-70
2023/01/30 06:00:27;;;;;;;0.50;0.50;;;;;;;4.08;77.17;97969.44;5104030;28;20020;-70
2023/01/30 06:02:52;;;;;;;0.50;0.50;;;;;;;4.07;77.23;97979.75;5085410;28;20024;-69
2023/01/30 06:05:17;;;;;;;0.60;0.60;;;;;;;4.04;76.84;97965.25;5104956;28;20073;-70
2023/01/30 06:07:43;;;;;;;0.50;0.50;;;;;;;4.01;76.70;97959.34;5106449;28;20114;-70
2023/01/30 06:10:09;;;;;;;0.50;0.50;;;;;;;4.09;76.48;97954.88;5088837;28;20017;-71
2023/01/30 06:12:34;;;;;;;0.50;0.50;;;;;;;4.09;76.61;97966.00;5104848;28;20024;-71
2023/01/30 06:15:00;;;;;;;0.55;0.55;;;;;;;4.10;76.87;97959.13;5104839;28;20027;-72
2023/01/30 06:17:25;;;;;;;0.50;0.50;;;;;;;4.09;77.01;97975.41;5104944;28;20016;-70
2023/01/30 06:19:50;;;;;;;0.50;0.50;;;;;;;4.06;76.90;97971.19;5103219;28;20031;-71
2023/01/30 06:22:16;;;;;;;0.60;0.60;;;;;;;4.03;77.37;97975.53;5104908;28;20028;-71
2023/01/30 06:24:41;;;;;;;0.60;0.60;;;;;;;3.90;77.45;97950.13;5105038;28;20091;-70
2023/01/30 06:27:07;;;;;;;0.50;0.50;;;;;;;3.99;77.48;97967.09;5103132;28;20104;-70
2023/01/30 06:29:32;;;;;;;0.70;0.70;;;;;;;3.97;77.97;97961.13;5087069;28;20023;-69
2023/01/30 06:31:57;;;;;;;0.50;0.50;;;;;;;3.97;78.08;97967.13;5108277;28;20127;-69
2023/01/30 06:34:23;;;;;;;0.60;0.60;;;;;;;3.89;77.81;97953.59;5089993;28;20024;-70
2023/01/30 06:36:48;;;;;;;0.50;0.50;;;;;;;3.98;78.21;97955.09;5108023;28;20060;-73
2023/01/30 06:39:14;;;;;;;0.50;0.50;;;;;;;4.04;77.99;97943.88;5089451;28;20020;-70
2023/01/30 06:41:39;;;;;;;0.57;0.57;;;;;;;3.98;78.58;97937.13;5107706;28;20016;-70
2023/01/30 06:44:04;;;;;;;2.08;1.98;;;;;;;4.04;78.60;97949.81;5089591;28;20135;-72
2023/01/30 06:46:30;;;;;;;1.35;1.35;;;;;;;4.09;78.92;97950.59;5107961;28;20019;-74
2023/01/30 06:48:55;;;;;;;0.50;0.50;;;;;;;4.13;79.01;97935.09;5089788;28;20024;-72
2023/01/30 06:51:21;;;;;;;0.60;0.60;;;;;;;4.13;79.03;97932.53;5107819;28;20027;-72
2023/01/30 06:53:46;;;;;;;0.50;0.50;;;;;;;4.13;79.01;97930.81;5107920;28;20020;-73
2023/01/30 06:56:11;;;;;;;0.50;0.50;;;;;;;4.24;78.78;97943.44;5107768;28;20024;-71
2023/01/30 06:58:37;;;;;;;0.50;0.50;;;;;;;4.26;78.53;97933.97;5106079;28;20020;-73
2023/01/30 07:01:02;;;;;;;0.50;0.50;;;;;;;4.29;77.73;97943.31;5107521;28;20020;-71
2023/01/30 07:03:28;;;;;;;0.52;0.52;;;;;;;4.25;77.24;97928.88;5107772;28;20024;-74
2023/01/30 07:05:53;;;;;;;0.50;0.50;;;;;;;4.22;76.67;97938.31;5107533;28;20085;-72
2023/01/30 07:08:19;;;;;;;0.50;0.50;;;;;;;4.26;76.25;97926.25;5089407;28;20404;-73
2023/01/30 07:10:44;;;;;;;0.50;0.50;;;;;;;4.34;75.70;97926.09;5107380;28;20024;-72
2023/01/30 07:13:10;;;;;;;0.60;0.60;;;;;;;4.31;75.82;97910.75;5107391;28;20023;-75
2023/01/30 07:15:36;;;;;;;0.50;0.50;;;;;;;4.31;75.65;97896.16;5089261;28;20057;-72
2023/01/30 07:18:01;;;;;;;0.50;0.50;;;;;;;4.30;75.57;97906.47;5106086;28;20024;-75
2023/01/30 07:20:29;;;;;;;0.80;0.80;;;;;;;4.21;75.15;97912.69;5107206;28;20020;-72
2023/01/30 07:22:55;;;;;;;0.55;0.55;;;;;;;4.27;75.04;97924.53;5107607;28;20023;-72
2023/01/30 07:25:22;;;;;;;0.50;0.50;;;;;;;4.29;74.86;97928.75;5107349;28;20111;-72
2023/01/30 07:27:53;;;;;;;0.60;0.60;;;;;;;4.26;75.49;97948.53;5107056;28;20031;-73
2023/01/30 07:30:19;;;;;;;0.50;0.50;;;;;;;4.20;75.22;97929.81;5107214;28;20579;-74
2023/01/30 07:32:58;;;;;;;0.55;0.55;;;;;;;4.18;74.90;97952.13;5107274;28;20028;-73
2023/01/30 07:35:25;;;;;;;0.50;0.50;;;;;;;4.12;75.11;97944.53;5107135;28;20024;-72
2023/01/30 07:37:50;;;;;;;0.60;0.60;;;;;;;4.07;74.78;97943.81;5107192;28;20041;-73
2023/01/30 07:40:19;;;;;;;0.50;0.50;;;;;;;4.09;74.94;97945.44;5106310;28;20119;-73
2023/01/30 07:43:05;;;;;;;0.50;0.50;;;;;;;4.08;75.23;97948.06;5106983;28;20044;-73
2023/01/30 07:45:36;;;;;;;0.50;0.50;;;;;;;4.05;75.19;97940.41;5088480;28;20104;-73
2023/01/30 07:48:01;;;;;;;0.67;0.67;;;;;;;4.02;75.20;97938.78;5088784;28;20016;-73
2023/01/30 07:50:27;;;;;;;0.50;0.50;;;;;;;4.08;75.42;97942.91;5106684;28;20076;-72
2023/01/30 07:52:52;;;;;;;0.50;0.50;;;;;;;4.08;75.42;97942.91;5106779;28;20024;-72
2023/01/30 07:55:18;;;;;;;0.50;0.50;;;;;;;4.04;75.48;97954.16;5106653;28;20047;-71
2023/01/30 07:57:43;;;;;;;0.50;0.50;;;;;;;3.94;75.78;97944.06;5106512;28;20025;-74
2023/01/30 08:00:11;;;;;;;1.77;1.67;;;;;;;4.09;75.77;97947.16;5088058;28;20272;-74
2023/01/30 08:02:36;;;;;;;0.50;0.50;;;;;;;4.20;75.80;97949.53;5088493;28;20024;-73
2023/01/30 08:05:02;;;;;;;0.85;0.85;;;;;;;4.37;75.40;97964.53;5106479;28;20262;-71
2023/01/30 08:07:27;;;;;;;0.60;0.60;;;;;;;4.38;74.84;97963.66;5106448;28;20024;-72
2023/01/30 08:09:53;;;;;;;0.50;0.50;;;;;;;4.43;74.82;97973.81;5106376;28;20039;-72
2023/01/30 08:12:21;;;;;;;0.60;0.60;;;;;;;4.43;74.78;97960.97;5088198;28;20160;-72
2023/01/30 08:15:04;;;;;;;0.55;0.55;;;;;;;4.41;74.90;97949.91;5106670;28;20545;-72
2023/01/30 08:17:29;;;;;;;0.88;0.88;;;;;;;4.41;74.97;97949.91;5106354;28;20043;-72
2023/01/30 08:19:55;;;;;;;0.50;0.50;;;;;;;4.44;75.52;97955.81;5106053;28;20016;-72
2023/01/30 08:22:20;;;;;;;0.50;0.50;;;;;;;4.48;75.24;97951.44;5087857;28;20092;-74
2023/01/30 08:24:46;;;;;;;0.50;0.50;;;;;;;4.64;74.92;97945.94;5088048;28;20016;-74
2023/01/30 08:27:11;;;;;;;0.50;0.50;;;;;;;4.60;75.04;97955.44;5104635;28;20488;-73
2023/01/30 08:29:36;;;;;;;0.50;0.50;;;;;;;4.61;74.58;97964.00;5087800;28;20024;-73
2023/01/30 08:32:02;;;;;;;0.50;0.50;;;;;;;4.52;74.34;97940.22;5104540;28;20042;-73
2023/01/30 08:34:27;;;;;;;0.50;0.50;;;;;;;4.57;74.92;97953.81;5106023;28;20024;-73
2023/01/30 08:36:53;;;;;;;0.60;0.60;;;;;;;4.68;75.01;97950.97;5087621;28;20027;-73
2023/01/30 08:39:18;;;;;;;2.42;2.28;;;;;;;4.89;74.91;97964.19;5105994;28;20514;-72
2023/01/30 08:41:44;;;;;;;0.57;0.57;;;;;;;5.36;74.31;97963.00;5105826;28;20468;-73
2023/01/30 08:44:10;;;;;;;0.50;0.50;;;;;;;5.72;73.33;97956.06;5087425;28;20072;-73
2023/01/30 08:46:36;;;;;;;0.50;0.50;;;;;;;6.05;72.56;97949.09;5105844;28;20031;-73
2023/01/30 08:49:02;;;;;;;0.50;0.50;;;;;;;6.20;71.73;97968.44;5105743;28;20020;-72
2023/01/30 08:51:27;;;;;;;0.60;0.60;;;;;;;6.28;70.95;97980.22;5105385;28;20444;-73
2023/01/30 08:53:53;;;;;;;0.40;0.40;;;;;;;6.01;70.90;97957.78;5104972;28;20084;-72
2023/01/30 08:56:18;;;;;;;4.55;4.22;;;;;;;5.91;70.59;97970.09;5087460;28;20025;-74
2023/01/30 08:58:45;;;;;;;1.13;1.13;;;;;;;5.82;70.99;97990.94;5105422;28;20028;-72
2023/01/30 09:01:11;;;;;;;0.55;0.55;;;;;;;5.74;71.17;97990.31;5105357;28;20076;-73
2023/01/30 09:03:37;;;;;;;0.50;0.50;;;;;;;5.79;70.83;97993.63;5105555;28;20133;-73
2023/01/30 09:06:02;;;;;;;0.60;0.60;;;;;;;5.83;71.33;97959.19;5105568;28;20032;-74
2023/01/30 09:08:27;;;;;;;0.50;0.50;;;;;;;5.97;70.62;97968.22;5105581;28;20031;-75
2023/01/30 09:10:59;;;;;;;0.50;0.50;;;;;;;5.88;69.36;97956.47;5106532;28;20020;-74
2023/01/30 09:13:25;;;;;;;1.23;1.23;;;;;;;5.98;70.05;97987.94;5087466;28;20126;-75
2023/01/30 09:15:50;;;;;;;0.50;0.50;;;;;;;6.38;70.07;97960.19;5105446;28;20020;-75
2023/01/30 09:18:16;;;;;;;0.50;0.50;;;;;;;6.93;68.75;97972.22;5105554;28;20102;-74
2023/01/30 09:20:41;;;;;;;0.50;0.50;;;;;;;7.42;67.82;97980.03;5105110;28;20019;-73
2023/01/30 09:23:07;;;;;;;0.50;0.50;;;;;;;7.68;66.17;97973.09;5105319;28;20028;-74
2023/01/30 09:25:32;;;;;;;5.35;3.53;;;;;;;7.37;65.16;97974.19;5105283;28;20024;-73
2023/01/30 09:27:58;;;;;;;0.40;0.40;;;;;;;7.16;66.23;97962.84;5105236;28;20076;-73
2023/01/30 09:30:24;;;;;;;0.50;0.50;;;;;;;7.56;66.48;97970.94;5105199;28;20016;-74
2023/01/30 09:32:49;;;;;;;0.50;0.50;;;;;;;8.20;65.11;97966.06;5105478;28;20031;-73
2023/01/30 09:35:15;;;;;;;0.50;0.50;;;;;;;8.89;63.91;97966.88;5105283;28;20020;-75
2023/01/30 09:37:52;;;;;;;0.50;0.50;;;;;;;9.29;62.81;97974.72;5105173;28;20031;-74
2023/01/30 09:40:22;;;;;;;0.40;0.40;;;;;;;9.61;61.34;97975.97;5105305;28;20052;-73
2023/01/30 09:43:00;;;;;;;0.40;0.40;;;;;;;9.82;60.57;97994.09;5105112;28;20027;-73
2023/01/30 09:45:36;;;;;;;0.40;0.40;;;;;;;9.98;60.64;97978.69;5105424;28;20047;-72
2023/01/30 09:48:13;;;;;;;0.45;0.45;;;;;;;10.08;59.64;97984.31;5105567;28;20063;-72
2023/01/30 09:50:50;;;;;;;0.43;0.43;;;;;;;10.22;60.20;98012.19;5105370;28;20027;-73
2023/01/30 09:53:51;;;;;;;0.55;0.55;;;;;;;9.94;58.40;97983.16;5087263;28;20020;-73
2023/01/30 09:56:16;;;;;;;0.50;0.50;;;;;;;9.15;58.31;97975.28;5105506;28;20020;-73
2023/01/30 09:59:01;;;;;;;1.15;1.15;;;;;;;8.73;60.13;97974.41;5105280;28;20589;-74
2023/01/30 10:01:39;;;;;;;0.50;0.50;;;;;;;8.96;59.95;97979.56;5104761;28;20031;-74
2023/01/30 10:04:29;;;;;;;0.50;0.50;;;;;;;9.03;59.69;97983.56;5106604;28;20020;-72
2023/01/30 10:07:09;;;;;;;0.40;0.40;;;;;;;8.88;59.00;97980.69;5109167;28;20041;-73
2023/01/30 10:09:37;;;;;;;0.40;0.40;;;;;;;8.40;58.69;97978.22;5090573;28;20020;-73
2023/01/30 10:12:15;;;;;;;4.20;2.45;;;;;;;7.66;60.26;97987.81;5108273;28;20585;-75
2023/01/30 10:15:02;;;;;;;0.50;0.50;;;;;;;7.12;61.63;98005.16;5108638;28;20017;-74
2023/01/30 10:17:33;;;;;;;0.50;0.50;;;;;;;6.71;62.33;98003.84;5108694;28;20085;-74
2023/01/30 10:20:09;;;;;;;41.63;2.83;;;;;;;6.90;64.95;98017.00;5108484;28;20023;-71
2023/01/30 10:23:06;;;;;;;0.50;0.50;;;;;;;7.85;63.55;98028.47;5108588;28;20024;-72
2023/01/30 10:25:38;;;;;;;0.50;0.50;;;;;;;8.95;62.52;98019.25;5108562;28;20024;-72
2023/01/30 10:28:21;;;;;;;0.52;0.52;;;;;;;9.76;57.56;98027.13;5108333;28;20024;-73
2023/01/30 10:30:50;;;;;;;0.40;0.40;;;;;;;9.77;57.04;98008.09;5108391;28;20543;-72
2023/01/30 10:33:21;;;;;;;0.40;0.40;;;;;;;9.83;56.99;98006.13;5108532;28;20051;-72
2023/01/30 10:35:58;;;;;;;0.50;0.50;;;;;;;10.04;57.19;98005.19;5090144;28;20077;-73
2023/01/30 10:38:39;;;;;;;0.40;0.40;;;;;;;10.09;56.13;98023.13;5108425;28;20082;-72
2023/01/30 10:41:25;;;;;;;0.50;0.50;;;;;;;10.02;56.10;98032.06;5108225;28;20020;-72
2023/01/30 10:44:12;;;;;;;0.40;0.40;;;;;;;9.85;57.04;98041.44;5089582;28;20048;-72
2023/01/30 10:46:46;;;;;;;0.40;0.40;;;;;;;9.59;57.51;98030.44;5089917;28;20020;-74
2023/01/30 10:49:24;;;;;;;0.40;0.40;;;;;;;9.36;58.27;98044.38;5108223;28;20052;-73
2023/01/30 10:52:02;;;;;;;0.98;0.98;;;;;;;9.48;57.96;98054.22;5107910;28;20027;-75
2023/01/30 10:54:30;;;;;;;0.75;0.75;;;;;;;9.60;58.12;98060.63;5107993;28;20099;-73
2023/01/30 10:57:24;;;;;;;0.55;0.55;;;;;;;9.52;57.25;98047.16;5089487;28;20024;-73
2023/01/30 11:00:21;;;;;;;0.50;0.50;;;;;;;9.44;56.66;98057.81;5107734;28;20020;-74
2023/01/30 11:03:02;;;;;;;0.40;0.40;;;;;;;9.29;55.01;98056.72;5089895;28;20028;-74
2023/01/30 11:05:53;;;;;;;0.50;0.50;;;;;;;9.18;54.27;98054.59;5107808;28;20030;-72
2023/01/30 11:08:21;;;;;;;0.50;0.50;;;;;;;9.19;54.47;98061.44;5090093;28;20036;-74
2023/01/30 11:10:47;;;;;;;0.50;0.50;;;;;;;9.32;53.80;98063.50;5107917;28;20024;-73
2023/01/30 11:13:18;;;;;;;0.50;0.50;;;;;;;9.46;53.40;98063.78;5107461;28;20024;-72
2023/01/30 11:15:47;;;;;;;0.50;0.50;;;;;;;9.61;53.08;98058.88;5106861;28;20020;-73
2023/01/30 11:18:13;;;;;;;0.50;0.50;;;;;;;9.56;52.77;98069.44;5107490;28;20032;-71
2023/01/30 11:20:42;;;;;;;0.50;0.50;;;;;;;9.59;53.07;98078.81;5107276;28;20019;-71
2023/01/30 11:23:24;;;;;;;0.50;0.50;;;;;;;9.79;53.27;98084.00;5107398;28;20095;-72
2023/01/30 11:25:54;;;;;;;0.50;0.50;;;;;;;10.52;52.25;98086.94;5107328;28;20027;-72
2023/01/30 11:28:19;;;;;;;0.60;0.60;;;;;;;11.10;51.24;98079.91;5107715;28;20027;-72
2023/01/30 11:30:58;;;;;;;0.45;0.45;;;;;;;11.44;49.93;98067.03;5107216;28;20027;-71
2023/01/30 11:33:37;;;;;;;0.50;0.50;;;;;;;11.64;50.41;98071.25;5089069;28;20031;-71
2023/01/30 11:36:05;;;;;;;0.50;0.50;;;;;;;11.98;49.05;98055.66;5088934;28;20024;-74
2023/01/30 11:38:37;;;;;;;0.40;0.40;;;;;;;12.02;49.18;98059.81;5107040;28;20079;-71
2023/01/30 11:41:09;;;;;;;0.40;0.40;;;;;;;11.88;49.64;98085.69;5106866;28;20024;-72
2023/01/30 11:43:38;;;;;;;0.50;0.50;;;;;;;11.38;50.47;98072.53;5106627;28;20484;-72
2023/01/30 11:46:06;;;;;;;0.50;0.50;;;;;;;10.45;51.56;98091.53;5107134;28;20032;-72
2023/01/30 11:48:34;;;;;;;1.10;1.10;;;;;;;9.57;52.25;98085.81;5107144;28;20484;-74
2023/01/30 11:51:05;;;;;;;0.50;0.50;;;;;;;8.74;53.94;98081.31;5106760;28;20020;-73
2023/01/30 11:53:39;;;;;;;14.65;3.08;;;;;;;8.12;54.93;98094.72;5106960;28;20379;-73
2023/01/30 11:56:16;;;;;;;0.50;0.50;;;;;;;7.61;56.51;98097.31;5106919;28;20050;-72